BIENTÔT MET'MAP
version 2.0 !

Prévue avant fin octobre,
la nouvelle version sera
plus belle, plus complète
et hébergée sur un serveur
3 fois plus puissant...
et toujours gratuite !


Pas compatible ?
Essayez la version Mobile !

SE CONNECTER : | S'inscrire | Disclaimer | Découvrir Orbifly |
Code OACI :

TAF - LGNX Naxos - 08 Apr 2020 02:11 UTC - Data Source NOAA   


- Altitude de l'aérodrome : 10 ft
- Code IATA : JNX
- Pas de NOTAMs connus.


LGNX - Naxos

Dernier METAR connu : 2015/08/11 07:50 LGNX 110750Z 35010KT 9999 FEW030 28/19 Q1011
TAF N/A

Source NOAA


MET'MAP, la Météo Aéronautique d'un coup d'oeil ! - Copyright ORBIFLY Décembre 2007

Développement & Programmation : Alexandra Zaïnal
Co-Développement : Marc-Olivier Méhu
Soutien technique & logistique : Manuel Goepfert
Conception & Financement : Baudouin d'Aumeries